Nerchinsk, Russia
Current Conditions -  °F | °C
As of 6:30 AM on Friday 24 Oct 2014 (Local Time) from UIAA Reporting Station
Clear Clear  
Wind Chill: 18°   Ceiling: Unl
Heat Index: 18°   Visibility: 6mi
Dew Point: 14°   Wind: 2mph
Humidity: 86%   Direction: NA
Pressure: 29.8"   Gusts: NA
Location:  52°N, 116.55°E
Report Text: UIAA 232130Z VRB01MPS 9999 SKC M08/M10 Q1009 NOSIG RMK QFE69829CLRD70
Loading
Personal Weather Stations






























Interactive Weather Map
Tropical Storm Tracking
New forecast layout! Learn more

10-Day Weather Forecast

Advertisements
Track Severe Weather on mobile